sensor_id;sensor_type;location;lat;lon;timestamp;P1;durP1;ratioP1;P2;durP2;ratioP2
77775;SDS011;73554;43.328;6.668;2024-01-27T06:36:06;9.18;;;4.45;;
77775;SDS011;73554;43.328;6.668;2024-01-27T06:38:34;6.97;;;4.78;;
77775;SDS011;73554;43.328;6.668;2024-01-27T06:41:06;8.55;;;5.05;;
77775;SDS011;73554;43.328;6.668;2024-01-27T06:43:31;8.65;;;4.85;;
77775;SDS011;73554;43.328;6.668;2024-01-27T06:45:57;7.72;;;4.65;;
77775;SDS011;73554;43.328;6.668;2024-01-27T06:48:27;10.07;;;4.70;;
77775;SDS011;73554;43.328;6.668;2024-01-27T06:50:53;8.55;;;4.47;;
77775;SDS011;73554;43.328;6.668;2024-01-27T06:53:19;8.15;;;4.25;;
77775;SDS011;73554;43.328;6.668;2024-01-27T06:55:48;8.15;;;4.97;;
77775;SDS011;73554;43.328;6.668;2024-01-27T06:58:17;8.13;;;4.18;;
77775;SDS011;73554;43.328;6.668;2024-01-27T07:00:43;9.77;;;5.53;;
77775;SDS011;73554;43.328;6.668;2024-01-27T07:03:10;7.22;;;4.50;;
77775;SDS011;73554;43.328;6.668;2024-01-27T07:08:08;6.88;;;5.13;;
77775;SDS011;73554;43.328;6.668;2024-01-27T07:10:34;7.25;;;4.78;;
77775;SDS011;73554;43.328;6.668;2024-01-27T07:15:26;9.10;;;4.05;;
77775;SDS011;73554;43.328;6.668;2024-01-27T07:17:53;8.88;;;4.35;;
77775;SDS011;73554;43.328;6.668;2024-01-27T07:20:19;9.88;;;4.70;;
77775;SDS011;73554;43.328;6.668;2024-01-27T07:22:46;12.25;;;5.60;;
77775;SDS011;73554;43.328;6.668;2024-01-27T07:25:12;8.40;;;4.65;;
77775;SDS011;73554;43.328;6.668;2024-01-27T07:27:38;9.82;;;5.38;;
77775;SDS011;73554;43.328;6.668;2024-01-27T07:30:07;12.63;;;6.15;;
77775;SDS011;73554;43.328;6.668;2024-01-27T07:32:45;9.48;;;4.70;;
77775;SDS011;73554;43.328;6.668;2024-01-27T07:35:14;11.07;;;6.00;;
77775;SDS011;73554;43.328;6.668;2024-01-27T07:37:47;10.43;;;5.00;;
77775;SDS011;73554;43.328;6.668;2024-01-27T07:40:13;10.13;;;5.03;;
77775;SDS011;73554;43.328;6.668;2024-01-27T07:42:42;8.88;;;5.22;;
77775;SDS011;73554;43.328;6.668;2024-01-27T07:45:14;9.05;;;5.13;;
77775;SDS011;73554;43.328;6.668;2024-01-27T07:47:41;10.10;;;5.50;;
77775;SDS011;73554;43.328;6.668;2024-01-27T07:50:07;9.85;;;5.07;;
77775;SDS011;73554;43.328;6.668;2024-01-27T07:52:34;11.02;;;5.57;;
77775;SDS011;73554;43.328;6.668;2024-01-27T07:55:00;9.88;;;4.43;;
77775;SDS011;73554;43.328;6.668;2024-01-27T07:57:27;7.80;;;5.22;;
77775;SDS011;73554;43.328;6.668;2024-01-27T07:59:55;7.88;;;4.63;;
77775;SDS011;73554;43.328;6.668;2024-01-27T08:20:27;6.68;;;4.43;;
77775;SDS011;73554;43.328;6.668;2024-01-27T08:22:58;8.27;;;4.53;;
77775;SDS011;73554;43.328;6.668;2024-01-27T08:28:03;7.22;;;4.72;;
77775;SDS011;73554;43.328;6.668;2024-01-27T08:33:58;8.13;;;5.18;;
77775;SDS011;73554;43.328;6.668;2024-01-27T08:36:23;9.80;;;4.10;;
77775;SDS011;73554;43.328;6.668;2024-01-27T08:38:52;7.13;;;4.35;;
77775;SDS011;73554;43.328;6.668;2024-01-27T08:41:19;9.93;;;4.90;;
77775;SDS011;73554;43.328;6.668;2024-01-27T08:46:22;6.47;;;4.43;;
77775;SDS011;73554;43.328;6.668;2024-01-27T08:56:54;8.55;;;5.55;;
77775;SDS011;73554;43.328;6.668;2024-01-27T08:59:33;9.13;;;4.85;;
77775;SDS011;73554;43.328;6.668;2024-01-27T09:02:00;9.07;;;4.97;;
77775;SDS011;73554;43.328;6.668;2024-01-27T09:04:29;8.35;;;5.10;;
77775;SDS011;73554;43.328;6.668;2024-01-27T09:06:58;10.48;;;5.40;;
77775;SDS011;73554;43.328;6.668;2024-01-27T09:09:24;9.68;;;3.78;;
77775;SDS011;73554;43.328;6.668;2024-01-27T09:11:54;10.43;;;5.78;;
77775;SDS011;73554;43.328;6.668;2024-01-27T09:14:23;13.77;;;5.82;;
77775;SDS011;73554;43.328;6.668;2024-01-27T09:16:52;8.05;;;4.97;;
77775;SDS011;73554;43.328;6.668;2024-01-27T09:19:26;12.20;;;6.22;;
77775;SDS011;73554;43.328;6.668;2024-01-27T09:21:52;7.88;;;4.35;;
77775;SDS011;73554;43.328;6.668;2024-01-27T09:24:21;9.23;;;5.13;;
77775;SDS011;73554;43.328;6.668;2024-01-27T09:26:50;7.97;;;4.38;;
77775;SDS011;73554;43.328;6.668;2024-01-27T09:29:26;7.78;;;4.60;;
77775;SDS011;73554;43.328;6.668;2024-01-27T09:34:24;8.10;;;4.82;;
77775;SDS011;73554;43.328;6.668;2024-01-27T09:36:59;10.95;;;5.22;;
77775;SDS011;73554;43.328;6.668;2024-01-27T09:39:28;8.38;;;4.85;;
77775;SDS011;73554;43.328;6.668;2024-01-27T09:41:57;6.88;;;4.72;;
77775;SDS011;73554;43.328;6.668;2024-01-27T09:44:26;9.20;;;4.72;;
77775;SDS011;73554;43.328;6.668;2024-01-27T09:46:53;11.00;;;5.57;;
77775;SDS011;73554;43.328;6.668;2024-01-27T09:49:25;10.63;;;5.90;;
77775;SDS011;73554;43.328;6.668;2024-01-27T09:51:55;13.45;;;7.05;;
77775;SDS011;73554;43.328;6.668;2024-01-27T09:54:21;16.00;;;6.53;;
77775;SDS011;73554;43.328;6.668;2024-01-27T09:56:57;9.10;;;5.35;;
77775;SDS011;73554;43.328;6.668;2024-01-27T09:59:33;9.75;;;5.68;;
77775;SDS011;73554;43.328;6.668;2024-01-27T10:02:12;10.15;;;6.05;;
77775;SDS011;73554;43.328;6.668;2024-01-27T10:04:40;9.88;;;6.57;;
77775;SDS011;73554;43.328;6.668;2024-01-27T10:07:13;9.55;;;5.35;;
77775;SDS011;73554;43.328;6.668;2024-01-27T10:09:53;8.63;;;5.03;;
77775;SDS011;73554;43.328;6.668;2024-01-27T10:12:19;9.10;;;5.53;;
77775;SDS011;73554;43.328;6.668;2024-01-27T10:14:48;11.57;;;5.32;;
77775;SDS011;73554;43.328;6.668;2024-01-27T10:20:36;9.45;;;5.88;;
77775;SDS011;73554;43.328;6.668;2024-01-27T10:23:12;9.95;;;5.32;;
77775;SDS011;73554;43.328;6.668;2024-01-27T10:25:51;11.80;;;7.45;;
77775;SDS011;73554;43.328;6.668;2024-01-27T10:38:52;10.85;;;6.30;;
77775;SDS011;73554;43.328;6.668;2024-01-27T10:41:24;10.70;;;6.43;;
77775;SDS011;73554;43.328;6.668;2024-01-27T10:44:01;13.02;;;6.65;;
77775;SDS011;73554;43.328;6.668;2024-01-27T10:46:43;10.93;;;5.65;;
77775;SDS011;73554;43.328;6.668;2024-01-27T18:22:22;13.35;;;6.88;;
77775;SDS011;73554;43.328;6.668;2024-01-27T18:24:49;12.95;;;6.70;;
77775;SDS011;73554;43.328;6.668;2024-01-27T18:27:19;15.07;;;7.22;;
77775;SDS011;73554;43.328;6.668;2024-01-27T18:29:48;13.38;;;7.10;;
77775;SDS011;73554;43.328;6.668;2024-01-27T18:32:17;10.90;;;7.07;;
77775;SDS011;73554;43.328;6.668;2024-01-27T18:34:47;14.02;;;7.07;;
77775;SDS011;73554;43.328;6.668;2024-01-27T18:37:16;12.30;;;7.32;;
77775;SDS011;73554;43.328;6.668;2024-01-27T18:39:42;11.73;;;6.53;;
77775;SDS011;73554;43.328;6.668;2024-01-27T18:42:08;9.80;;;6.50;;
77775;SDS011;73554;43.328;6.668;2024-01-27T18:44:34;13.55;;;7.93;;
77775;SDS011;73554;43.328;6.668;2024-01-27T18:47:01;14.48;;;8.45;;
77775;SDS011;73554;43.328;6.668;2024-01-27T18:49:27;13.70;;;8.73;;
77775;SDS011;73554;43.328;6.668;2024-01-27T18:51:53;18.08;;;7.85;;
77775;SDS011;73554;43.328;6.668;2024-01-27T18:56:46;15.50;;;7.00;;
77775;SDS011;73554;43.328;6.668;2024-01-27T18:59:11;15.15;;;8.38;;
77775;SDS011;73554;43.328;6.668;2024-01-27T19:01:41;15.45;;;7.93;;
77775;SDS011;73554;43.328;6.668;2024-01-27T19:04:10;12.32;;;7.10;;
77775;SDS011;73554;43.328;6.668;2024-01-27T19:06:36;15.75;;;7.65;;
77775;SDS011;73554;43.328;6.668;2024-01-27T19:09:02;12.48;;;7.65;;
77775;SDS011;73554;43.328;6.668;2024-01-27T19:11:28;13.65;;;6.75;;
77775;SDS011;73554;43.328;6.668;2024-01-27T19:13:54;11.70;;;7.70;;
77775;SDS011;73554;43.328;6.668;2024-01-27T19:16:20;11.77;;;7.07;;
77775;SDS011;73554;43.328;6.668;2024-01-27T19:18:46;10.55;;;7.07;;
77775;SDS011;73554;43.328;6.668;2024-01-27T19:21:14;10.73;;;7.03;;
77775;SDS011;73554;43.328;6.668;2024-01-27T19:23:40;12.77;;;7.93;;
77775;SDS011;73554;43.328;6.668;2024-01-27T19:26:06;12.93;;;7.40;;
77775;SDS011;73554;43.328;6.668;2024-01-27T19:28:32;11.75;;;7.10;;
77775;SDS011;73554;43.328;6.668;2024-01-27T19:30:58;12.90;;;8.93;;
77775;SDS011;73554;43.328;6.668;2024-01-27T19:33:30;10.68;;;6.90;;
77775;SDS011;73554;43.328;6.668;2024-01-27T19:36:01;15.88;;;8.10;;
77775;SDS011;73554;43.328;6.668;2024-01-27T19:38:32;17.20;;;9.02;;
77775;SDS011;73554;43.328;6.668;2024-01-27T19:40:59;13.15;;;7.38;;
77775;SDS011;73554;43.328;6.668;2024-01-27T19:43:28;15.43;;;8.45;;
77775;SDS011;73554;43.328;6.668;2024-01-27T19:45:54;15.25;;;8.57;;
77775;SDS011;73554;43.328;6.668;2024-01-27T19:48:23;18.58;;;11.52;;
77775;SDS011;73554;43.328;6.668;2024-01-27T19:50:52;24.40;;;13.50;;
77775;SDS011;73554;43.328;6.668;2024-01-27T19:53:18;26.48;;;14.10;;
77775;SDS011;73554;43.328;6.668;2024-01-27T19:55:46;22.85;;;12.93;;
77775;SDS011;73554;43.328;6.668;2024-01-27T19:58:18;23.73;;;12.43;;
77775;SDS011;73554;43.328;6.668;2024-01-27T20:00:48;15.88;;;10.35;;
77775;SDS011;73554;43.328;6.668;2024-01-27T20:03:14;17.70;;;9.93;;
77775;SDS011;73554;43.328;6.668;2024-01-27T20:05:45;17.58;;;10.18;;
77775;SDS011;73554;43.328;6.668;2024-01-27T20:08:18;16.52;;;10.20;;
77775;SDS011;73554;43.328;6.668;2024-01-27T20:10:46;18.85;;;8.98;;
77775;SDS011;73554;43.328;6.668;2024-01-27T20:13:12;16.40;;;9.45;;
77775;SDS011;73554;43.328;6.668;2024-01-27T20:15:41;19.98;;;11.52;;
77775;SDS011;73554;43.328;6.668;2024-01-27T20:18:10;20.00;;;10.90;;
77775;SDS011;73554;43.328;6.668;2024-01-27T20:20:36;17.10;;;10.50;;
77775;SDS011;73554;43.328;6.668;2024-01-27T20:23:05;15.73;;;9.25;;
77775;SDS011;73554;43.328;6.668;2024-01-27T20:25:31;14.30;;;8.07;;
77775;SDS011;73554;43.328;6.668;2024-01-27T20:27:57;13.23;;;9.90;;
77775;SDS011;73554;43.328;6.668;2024-01-27T20:30:29;13.98;;;9.13;;
77775;SDS011;73554;43.328;6.668;2024-01-27T20:32:55;15.32;;;9.65;;
77775;SDS011;73554;43.328;6.668;2024-01-27T20:35:24;21.17;;;11.35;;
77775;SDS011;73554;43.328;6.668;2024-01-27T20:37:56;15.27;;;10.20;;
77775;SDS011;73554;43.328;6.668;2024-01-27T20:40:32;20.13;;;10.43;;
77775;SDS011;73554;43.328;6.668;2024-01-27T20:43:05;20.75;;;11.75;;
77775;SDS011;73554;43.328;6.668;2024-01-27T20:45:34;20.02;;;11.27;;
77775;SDS011;73554;43.328;6.668;2024-01-27T20:48:04;19.83;;;10.25;;
77775;SDS011;73554;43.328;6.668;2024-01-27T20:50:33;19.95;;;10.43;;
77775;SDS011;73554;43.328;6.668;2024-01-27T20:52:59;17.35;;;10.73;;
77775;SDS011;73554;43.328;6.668;2024-01-27T20:55:29;19.27;;;10.10;;
77775;SDS011;73554;43.328;6.668;2024-01-27T20:57:55;20.85;;;12.23;;
77775;SDS011;73554;43.328;6.668;2024-01-27T21:00:24;17.25;;;10.00;;
77775;SDS011;73554;43.328;6.668;2024-01-27T21:02:57;18.83;;;11.15;;
77775;SDS011;73554;43.328;6.668;2024-01-27T21:05:23;13.88;;;9.93;;
77775;SDS011;73554;43.328;6.668;2024-01-27T21:07:58;17.40;;;10.52;;
77775;SDS011;73554;43.328;6.668;2024-01-27T21:10:30;14.77;;;10.40;;
77775;SDS011;73554;43.328;6.668;2024-01-27T21:13:08;13.25;;;9.77;;
77775;SDS011;73554;43.328;6.668;2024-01-27T21:15:34;15.70;;;10.10;;
77775;SDS011;73554;43.328;6.668;2024-01-27T21:18:00;14.48;;;9.68;;
77775;SDS011;73554;43.328;6.668;2024-01-27T21:20:39;14.35;;;9.35;;
77775;SDS011;73554;43.328;6.668;2024-01-27T21:23:05;11.20;;;8.65;;
77775;SDS011;73554;43.328;6.668;2024-01-27T21:25:32;15.88;;;9.60;;
77775;SDS011;73554;43.328;6.668;2024-01-27T21:28:01;12.50;;;9.10;;
77775;SDS011;73554;43.328;6.668;2024-01-27T21:30:27;13.77;;;8.70;;
77775;SDS011;73554;43.328;6.668;2024-01-27T21:33:01;15.80;;;9.63;;
77775;SDS011;73554;43.328;6.668;2024-01-27T21:35:28;13.68;;;8.35;;
77775;SDS011;73554;43.328;6.668;2024-01-27T21:37:59;16.33;;;8.57;;
77775;SDS011;73554;43.328;6.668;2024-01-27T21:40:28;13.27;;;9.63;;
77775;SDS011;73554;43.328;6.668;2024-01-27T21:45:26;14.35;;;8.00;;
77775;SDS011;73554;43.328;6.668;2024-01-27T21:47:58;15.57;;;9.98;;
77775;SDS011;73554;43.328;6.668;2024-01-27T21:50:30;14.75;;;9.40;;
77775;SDS011;73554;43.328;6.668;2024-01-27T21:53:02;17.75;;;9.82;;
77775;SDS011;73554;43.328;6.668;2024-01-27T21:55:29;14.40;;;8.65;;
77775;SDS011;73554;43.328;6.668;2024-01-27T21:58:01;15.38;;;8.88;;
77775;SDS011;73554;43.328;6.668;2024-01-27T22:00:29;12.93;;;8.80;;
77775;SDS011;73554;43.328;6.668;2024-01-27T22:02:55;18.25;;;10.07;;
77775;SDS011;73554;43.328;6.668;2024-01-27T22:05:24;18.33;;;11.20;;
77775;SDS011;73554;43.328;6.668;2024-01-27T22:07:51;21.55;;;11.18;;
77775;SDS011;73554;43.328;6.668;2024-01-27T22:10:20;26.15;;;12.93;;
77775;SDS011;73554;43.328;6.668;2024-01-27T22:12:46;20.13;;;12.60;;
77775;SDS011;73554;43.328;6.668;2024-01-27T22:15:16;17.83;;;10.13;;
77775;SDS011;73554;43.328;6.668;2024-01-27T22:17:47;17.13;;;10.25;;
77775;SDS011;73554;43.328;6.668;2024-01-27T22:20:15;17.70;;;9.52;;
77775;SDS011;73554;43.328;6.668;2024-01-27T22:22:48;15.07;;;10.85;;
77775;SDS011;73554;43.328;6.668;2024-01-27T22:25:20;15.00;;;8.68;;
77775;SDS011;73554;43.328;6.668;2024-01-27T22:27:46;15.93;;;9.88;;
77775;SDS011;73554;43.328;6.668;2024-01-27T22:30:12;15.55;;;9.90;;
77775;SDS011;73554;43.328;6.668;2024-01-27T22:32:40;16.67;;;9.18;;
77775;SDS011;73554;43.328;6.668;2024-01-27T22:35:06;15.32;;;10.20;;
77775;SDS011;73554;43.328;6.668;2024-01-27T22:39:59;14.18;;;9.70;;
77775;SDS011;73554;43.328;6.668;2024-01-27T22:42:25;16.17;;;9.63;;
77775;SDS011;73554;43.328;6.668;2024-01-27T22:44:51;20.95;;;10.43;;
77775;SDS011;73554;43.328;6.668;2024-01-27T22:47:20;16.95;;;10.73;;
77775;SDS011;73554;43.328;6.668;2024-01-27T22:49:46;14.82;;;10.75;;
77775;SDS011;73554;43.328;6.668;2024-01-27T22:52:15;14.38;;;10.43;;
77775;SDS011;73554;43.328;6.668;2024-01-27T22:54:43;15.10;;;9.85;;
77775;SDS011;73554;43.328;6.668;2024-01-27T22:57:09;18.55;;;10.80;;
77775;SDS011;73554;43.328;6.668;2024-01-27T22:59:53;15.38;;;9.95;;
77775;SDS011;73554;43.328;6.668;2024-01-27T23:02:22;18.95;;;9.65;;
77775;SDS011;73554;43.328;6.668;2024-01-27T23:04:54;17.23;;;9.00;;
77775;SDS011;73554;43.328;6.668;2024-01-27T23:07:35;15.20;;;10.48;;
77775;SDS011;73554;43.328;6.668;2024-01-27T23:10:13;13.90;;;8.80;;
77775;SDS011;73554;43.328;6.668;2024-01-27T23:12:51;15.40;;;9.20;;
77775;SDS011;73554;43.328;6.668;2024-01-27T23:15:20;13.88;;;9.13;;
77775;SDS011;73554;43.328;6.668;2024-01-27T23:17:59;13.50;;;8.70;;
77775;SDS011;73554;43.328;6.668;2024-01-27T23:20:30;13.52;;;8.95;;
77775;SDS011;73554;43.328;6.668;2024-01-27T23:22:55;15.82;;;8.73;;
77775;SDS011;73554;43.328;6.668;2024-01-27T23:25:36;14.45;;;9.32;;
77775;SDS011;73554;43.328;6.668;2024-01-27T23:28:02;16.15;;;9.02;;
77775;SDS011;73554;43.328;6.668;2024-01-27T23:30:39;15.15;;;8.60;;
77775;SDS011;73554;43.328;6.668;2024-01-27T23:33:05;15.65;;;9.30;;
77775;SDS011;73554;43.328;6.668;2024-01-27T23:35:40;17.27;;;9.13;;
77775;SDS011;73554;43.328;6.668;2024-01-27T23:38:11;16.17;;;8.70;;
77775;SDS011;73554;43.328;6.668;2024-01-27T23:40:40;14.63;;;8.45;;
77775;SDS011;73554;43.328;6.668;2024-01-27T23:43:12;13.43;;;9.18;;
77775;SDS011;73554;43.328;6.668;2024-01-27T23:45:44;14.95;;;7.28;;
77775;SDS011;73554;43.328;6.668;2024-01-27T23:48:12;14.65;;;9.52;;
77775;SDS011;73554;43.328;6.668;2024-01-27T23:50:52;14.88;;;8.32;;
77775;SDS011;73554;43.328;6.668;2024-01-27T23:53:22;16.23;;;8.73;;
77775;SDS011;73554;43.328;6.668;2024-01-27T23:56:09;13.20;;;8.43;;
77775;SDS011;73554;43.328;6.668;2024-01-27T23:58:34;14.17;;;7.97;;
